Kezdőlap
METAR-TAF:

METAR-TAF

Repülőterek :

Los Alamos, Új-Mexikó, Amerikai Egyesült Államok

földrajzi szélesség: 35-53N, földrajzi hosszúság: 106-17W, magasság: 2179 m

Jelenlegi meteorológiai megfigyelések

A jelentés 27 perccel ezelõtt készült, 15:35 UTC
Különbözõ irányokból fújó szél 4 kt
Hőmérséklet 22°C
Páratartalom 19%
Légköri nyomás 1016 hPa
Látótávolság: 12.9 km
Derült ég

METAR: KLAM 181535Z AUTO VRB04KT 8SM CLR 22/M03 A3000 RMK AO2 T02251033 $

Idő: 10:02 (16:02 UTC)


TAF: hiányzik

Meteorológiai megfigyelések és előrejelzések több, mint 4000 repülőtéren (METAR és TAF jelentéseket).

A térképen piros és sárga pontok jelzik az elérhető meteorológiai állomásokat.

Mozgassa az egeret a pont fölött, hogy megjelenjen az állomás neve.

Azután kattintson az időjárási megfigyelések és előrejelzések megtekintéséhez.

A térkép megváltoztatása: kattintson a fekete keresztel jelölt zöld gombra ráközelítéshez, a vonallal jelölt zöld gombra távolításhoz, vagy a zöld nyilakra a szomszédos térképek eléréséhez.


METAR-TAF: